Time;durP1;ratioP1;P1;durP2;ratioP2;P2;SDS_P1;SDS_P2;PMS_P1;PMS_P2;Temp;Humidity;BMP_temperature;BMP_pressure;BME280_temperature;BME280_humidity;BME280_pressure;Samples;Min_cycle;Max_cycle;Signal;HPM_P1;HPM_P2
2022/01/10 00:00:21;;;;;;;6.80;3.03;;;;;;;;;;4977382;28;20397;-52
2022/01/10 00:02:49;;;;;;;3.77;3.13;;;;;;;;;;4992110;28;20465;-50
2022/01/10 00:05:15;;;;;;;3.77;2.90;;;;;;;;;;4977547;28;20414;-52
2022/01/10 00:07:41;;;;;;;4.27;2.93;;;;;;;;;;4977438;28;20471;-51
2022/01/10 00:10:08;;;;;;;4.83;2.80;;;;;;;;;;4977531;28;20428;-50
2022/01/10 00:12:34;;;;;;;4.23;3.27;;;;;;;;;;4977383;28;20426;-50
2022/01/10 00:15:00;;;;;;;4.83;3.40;;;;;;;;;;4977395;28;20429;-53
2022/01/10 00:17:26;;;;;;;3.90;3.07;;;;;;;;;;4977194;28;20401;-50
2022/01/10 00:19:52;;;;;;;7.23;4.90;;;;;;;;;;4977083;28;20418;-49
2022/01/10 00:22:20;;;;;;;4.47;3.10;;;;;;;;;;4976967;28;20882;-53
2022/01/10 00:24:46;;;;;;;6.57;2.90;;;;;;;;;;4977017;28;20455;-50
2022/01/10 00:27:12;;;;;;;4.10;2.60;;;;;;;;;;4976781;28;20410;-53
2022/01/10 00:29:38;;;;;;;5.07;2.93;;;;;;;;;;4977397;28;20401;-53
2022/01/10 00:32:04;;;;;;;4.33;3.30;;;;;;;;;;4977021;28;20437;-52
2022/01/10 00:34:30;;;;;;;5.40;3.50;;;;;;;;;;4976879;28;20750;-53
2022/01/10 00:36:56;;;;;;;5.53;3.43;;;;;;;;;;4976792;28;20468;-55
2022/01/10 00:39:22;;;;;;;7.27;3.30;;;;;;;;;;4976448;28;20894;-53
2022/01/10 00:41:48;;;;;;;6.07;3.63;;;;;;;;;;4976477;28;20461;-51
2022/01/10 00:44:15;;;;;;;4.23;3.60;;;;;;;;;;4976781;28;20402;-50
2022/01/10 00:46:41;;;;;;;7.83;3.70;;;;;;;;;;4976841;28;20452;-51
2022/01/10 00:49:07;;;;;;;6.80;3.43;;;;;;;;;;4976630;28;20393;-51
2022/01/10 00:51:34;;;;;;;10.23;4.03;;;;;;;;;;4976363;28;20791;-53
2022/01/10 00:54:00;;;;;;;8.50;3.60;;;;;;;;;;4976574;28;20909;-53
2022/01/10 00:56:26;;;;;;;4.10;3.40;;;;;;;;;;4976337;28;20779;-53
2022/01/10 00:58:52;;;;;;;5.27;3.63;;;;;;;;;;4976464;28;20487;-55
2022/01/10 01:01:18;;;;;;;4.00;3.20;;;;;;;;;;4976631;28;20468;-52
2022/01/10 01:03:45;;;;;;;5.50;3.17;;;;;;;;;;4976245;28;20910;-55
2022/01/10 01:06:12;;;;;;;4.20;2.93;;;;;;;;;;4975925;28;20398;-52
2022/01/10 01:08:39;;;;;;;5.77;3.23;;;;;;;;;;4976276;28;20405;-52
2022/01/10 01:14:06;;;;;;;5.70;3.53;;;;;;;;;;4976564;28;20385;-51
2022/01/10 01:24:22;;;;;;;6.00;3.20;;;;;;;;;;4975925;28;20409;-52
2022/01/10 01:26:51;;;;;;;5.47;3.80;;;;;;;;;;4975917;28;20890;-52
2022/01/10 01:29:18;;;;;;;6.90;3.23;;;;;;;;;;4975830;28;20398;-53
2022/01/10 01:31:44;;;;;;;4.30;3.13;;;;;;;;;;4975927;28;20421;-54
2022/01/10 01:34:11;;;;;;;5.60;3.37;;;;;;;;;;4976110;28;20433;-52
2022/01/10 01:36:37;;;;;;;4.57;3.30;;;;;;;;;;4975690;28;20417;-51
2022/01/10 01:39:11;;;;;;;5.60;3.33;;;;;;;;;;4990438;28;20406;-51
2022/01/10 01:41:41;;;;;;;5.10;3.40;;;;;;;;;;4975361;28;20461;-51
2022/01/10 01:44:07;;;;;;;3.40;3.10;;;;;;;;;;4975763;28;20429;-54
2022/01/10 01:46:34;;;;;;;5.00;4.17;;;;;;;;;;4975471;28;20409;-54
2022/01/10 01:49:00;;;;;;;6.93;3.50;;;;;;;;;;4976431;28;20465;-51
2022/01/10 01:51:28;;;;;;;5.03;3.20;;;;;;;;;;4975344;28;20830;-50
2022/01/10 01:53:54;;;;;;;4.43;3.73;;;;;;;;;;4975518;28;20405;-52
2022/01/10 01:56:20;;;;;;;6.53;3.20;;;;;;;;;;4975451;28;20492;-52
2022/01/10 01:58:47;;;;;;;4.63;3.67;;;;;;;;;;4975253;28;20812;-51
2022/01/10 02:01:16;;;;;;;5.17;3.57;;;;;;;;;;4974887;28;20497;-51
2022/01/10 02:03:42;;;;;;;4.17;3.33;;;;;;;;;;4974650;28;20439;-51
2022/01/10 02:06:09;;;;;;;4.33;3.40;;;;;;;;;;4975474;28;20778;-52
2022/01/10 02:08:36;;;;;;;4.40;3.70;;;;;;;;;;4974860;28;20433;-50
2022/01/10 02:11:02;;;;;;;6.83;4.27;;;;;;;;;;4974981;28;20421;-51
2022/01/10 02:13:28;;;;;;;8.10;3.77;;;;;;;;;;4974698;28;20508;-53
2022/01/10 02:16:01;;;;;;;5.00;4.00;;;;;;;;;;4974817;28;20406;-53
2022/01/10 02:18:27;;;;;;;4.60;3.23;;;;;;;;;;4974803;28;20397;-55
2022/01/10 02:20:54;;;;;;;9.70;3.90;;;;;;;;;;4974839;28;20449;-50
2022/01/10 02:23:20;;;;;;;5.20;4.23;;;;;;;;;;4975236;28;20406;-55
2022/01/10 02:25:47;;;;;;;4.97;3.87;;;;;;;;;;4974998;28;20541;-54
2022/01/10 02:28:13;;;;;;;4.60;3.47;;;;;;;;;;4974800;28;20832;-51
2022/01/10 02:30:40;;;;;;;3.77;3.10;;;;;;;;;;4974526;28;20409;-54
2022/01/10 02:33:06;;;;;;;4.60;3.60;;;;;;;;;;4975118;28;20870;-51
2022/01/10 02:35:51;;;;;;;5.33;4.03;;;;;;;;;;4974687;28;20492;-51
2022/01/10 02:38:17;;;;;;;5.20;3.93;;;;;;;;;;4975019;28;20891;-51
2022/01/10 02:40:45;;;;;;;6.60;4.17;;;;;;;;;;4974564;28;20406;-54
2022/01/10 02:43:11;;;;;;;6.53;4.40;;;;;;;;;;4974634;28;20492;-53
2022/01/10 02:45:37;;;;;;;7.27;4.70;;;;;;;;;;4974438;28;20849;-52
2022/01/10 02:48:03;;;;;;;5.13;3.80;;;;;;;;;;4974512;28;20464;-56
2022/01/10 02:50:29;;;;;;;6.23;4.33;;;;;;;;;;4974650;28;20417;-53
2022/01/10 02:52:56;;;;;;;6.87;4.00;;;;;;;;;;4970021;28;20527;-52
2022/01/10 02:55:22;;;;;;;6.77;4.20;;;;;;;;;;4962206;28;20414;-56
2022/01/10 02:57:48;;;;;;;7.90;4.33;;;;;;;;;;4955167;29;20414;-51
2022/01/10 03:00:19;;;;;;;4.57;3.33;;;;;;;;;;4955343;29;20455;-56
2022/01/10 03:02:49;;;;;;;5.90;3.80;;;;;;;;;;4955137;28;20993;-55
2022/01/10 03:05:15;;;;;;;4.03;3.50;;;;;;;;;;4955051;29;20965;-52
2022/01/10 03:07:41;;;;;;;4.83;3.83;;;;;;;;;;4955178;29;20922;-53
2022/01/10 03:10:08;;;;;;;5.83;4.33;;;;;;;;;;4955588;29;20398;-54
2022/01/10 03:12:34;;;;;;;7.03;4.60;;;;;;;;;;4955095;28;20433;-54
2022/01/10 03:15:01;;;;;;;6.53;4.30;;;;;;;;;;4959140;29;20460;-53
2022/01/10 03:17:27;;;;;;;8.40;4.90;;;;;;;;;;4959474;29;20414;-55
2022/01/10 03:19:53;;;;;;;6.90;4.67;;;;;;;;;;4958914;29;20549;-51
2022/01/10 03:22:19;;;;;;;7.10;5.10;;;;;;;;;;4958625;28;20494;-51
2022/01/10 03:24:46;;;;;;;5.60;4.70;;;;;;;;;;4958713;29;20494;-54
2022/01/10 03:27:12;;;;;;;8.27;4.83;;;;;;;;;;4958803;29;20771;-51
2022/01/10 03:29:38;;;;;;;7.73;5.10;;;;;;;;;;4958666;29;20406;-53
2022/01/10 03:32:06;;;;;;;10.07;4.33;;;;;;;;;;4958687;28;20485;-53
2022/01/10 03:34:32;;;;;;;7.40;4.30;;;;;;;;;;4958540;29;20448;-52
2022/01/10 03:36:58;;;;;;;6.77;5.07;;;;;;;;;;4958687;29;20429;-51
2022/01/10 03:39:24;;;;;;;4.97;3.40;;;;;;;;;;4958701;29;20415;-52
2022/01/10 03:41:50;;;;;;;5.00;3.90;;;;;;;;;;4958321;28;20466;-54
2022/01/10 03:44:16;;;;;;;6.70;4.77;;;;;;;;;;4958938;29;20773;-51
2022/01/10 03:46:42;;;;;;;9.20;4.93;;;;;;;;;;4958311;29;20815;-51
2022/01/10 03:49:09;;;;;;;5.60;4.27;;;;;;;;;;4958532;29;20413;-54
2022/01/10 03:51:35;;;;;;;6.53;5.10;;;;;;;;;;4958341;28;20958;-52
2022/01/10 03:54:01;;;;;;;8.53;4.90;;;;;;;;;;4957994;29;20903;-53
2022/01/10 03:56:28;;;;;;;5.70;4.40;;;;;;;;;;4958110;29;20461;-52
2022/01/10 03:58:55;;;;;;;6.70;4.83;;;;;;;;;;4958305;29;20813;-54
2022/01/10 04:01:21;;;;;;;8.63;4.20;;;;;;;;;;4957887;28;20495;-55
2022/01/10 04:03:47;;;;;;;6.00;4.80;;;;;;;;;;4957908;29;20481;-52
2022/01/10 04:06:13;;;;;;;5.70;4.03;;;;;;;;;;4957963;29;20414;-55
2022/01/10 04:08:39;;;;;;;7.10;5.13;;;;;;;;;;4957879;29;20462;-52
2022/01/10 04:11:06;;;;;;;8.77;5.70;;;;;;;;;;4957874;28;20445;-55
2022/01/10 04:13:32;;;;;;;7.13;5.40;;;;;;;;;;4957849;29;20421;-52
2022/01/10 04:15:58;;;;;;;8.53;5.23;;;;;;;;;;4958157;29;20501;-53
2022/01/10 04:18:24;;;;;;;6.13;5.10;;;;;;;;;;4957687;29;20438;-54
2022/01/10 04:20:50;;;;;;;7.80;5.30;;;;;;;;;;4957926;28;20800;-55
2022/01/10 04:23:17;;;;;;;7.30;4.80;;;;;;;;;;4957516;28;20888;-52
2022/01/10 04:25:43;;;;;;;12.13;5.60;;;;;;;;;;4974833;28;20406;-54
2022/01/10 04:28:09;;;;;;;10.83;5.70;;;;;;;;;;4977136;28;20484;-51
2022/01/10 04:30:36;;;;;;;8.53;5.70;;;;;;;;;;4976916;28;20816;-54
2022/01/10 04:33:02;;;;;;;8.90;5.37;;;;;;;;;;4976812;28;20425;-53
2022/01/10 04:35:29;;;;;;;8.20;5.50;;;;;;;;;;4976928;28;20817;-55
2022/01/10 04:37:55;;;;;;;7.50;5.70;;;;;;;;;;4977071;28;20420;-53
2022/01/10 04:40:21;;;;;;;7.07;4.90;;;;;;;;;;4976908;28;20406;-54
2022/01/10 04:42:47;;;;;;;8.00;5.33;;;;;;;;;;4976449;28;20881;-55
2022/01/10 04:45:14;;;;;;;8.10;6.47;;;;;;;;;;4976692;28;20420;-55
2022/01/10 04:47:40;;;;;;;7.93;5.70;;;;;;;;;;4976726;28;20417;-54
2022/01/10 04:52:44;;;;;;;6.93;4.90;;;;;;;;;;4976792;28;20993;-53
2022/01/10 04:55:11;;;;;;;13.90;5.90;;;;;;;;;;4976664;28;20408;-55
2022/01/10 04:57:37;;;;;;;9.77;5.40;;;;;;;;;;4976697;28;20501;-53
2022/01/10 05:00:07;;;;;;;8.03;5.63;;;;;;;;;;4976865;28;20410;-51
2022/01/10 05:02:33;;;;;;;10.37;5.77;;;;;;;;;;4969836;28;20470;-54
2022/01/10 05:04:59;;;;;;;10.17;6.30;;;;;;;;;;4974166;28;20428;-52
2022/01/10 05:07:25;;;;;;;12.60;6.20;;;;;;;;;;4976303;28;20467;-51
2022/01/10 05:09:51;;;;;;;7.83;5.70;;;;;;;;;;4976071;28;20410;-51
2022/01/10 05:12:18;;;;;;;8.93;6.63;;;;;;;;;;4976018;28;20434;-51
2022/01/10 05:14:44;;;;;;;8.40;7.03;;;;;;;;;;4976271;28;20425;-53
2022/01/10 05:17:11;;;;;;;9.30;6.43;;;;;;;;;;4976267;28;20425;-53
2022/01/10 05:19:37;;;;;;;9.73;6.87;;;;;;;;;;4975947;28;20409;-52
2022/01/10 05:22:03;;;;;;;7.83;6.40;;;;;;;;;;4976164;28;20871;-51
2022/01/10 05:24:29;;;;;;;10.47;7.70;;;;;;;;;;4976318;28;20891;-51
2022/01/10 05:26:55;;;;;;;10.77;7.00;;;;;;;;;;4975916;28;20405;-51
2022/01/10 05:29:21;;;;;;;12.97;7.23;;;;;;;;;;4976275;28;20406;-55
2022/01/10 05:31:47;;;;;;;12.37;7.53;;;;;;;;;;4975357;28;20431;-52
2022/01/10 05:34:14;;;;;;;13.10;8.40;;;;;;;;;;4975344;28;20405;-52
2022/01/10 05:36:40;;;;;;;13.90;8.90;;;;;;;;;;4974563;28;20887;-51
2022/01/10 05:39:07;;;;;;;11.10;7.73;;;;;;;;;;4975261;28;20410;-52
2022/01/10 05:41:34;;;;;;;11.23;8.23;;;;;;;;;;4975420;28;20461;-54
2022/01/10 05:44:00;;;;;;;10.70;7.20;;;;;;;;;;4975385;28;20416;-55
2022/01/10 05:46:26;;;;;;;13.70;8.43;;;;;;;;;;4975516;28;20478;-52
2022/01/10 05:48:54;;;;;;;12.00;9.00;;;;;;;;;;4975523;28;20405;-54
2022/01/10 05:51:20;;;;;;;11.60;8.37;;;;;;;;;;4973895;28;20444;-52
2022/01/10 05:53:48;;;;;;;11.03;7.90;;;;;;;;;;4975084;28;20417;-51
2022/01/10 05:56:15;;;;;;;12.43;9.20;;;;;;;;;;4975293;28;20512;-53
2022/01/10 05:58:48;;;;;;;11.77;8.67;;;;;;;;;;5070952;28;20533;-53
2022/01/10 06:01:15;;;;;;;11.63;8.40;;;;;;;;;;5070341;28;21018;-52
2022/01/10 06:03:41;;;;;;;10.80;7.90;;;;;;;;;;5070302;28;20399;-51
2022/01/10 06:06:07;;;;;;;12.70;9.00;;;;;;;;;;5070435;28;20404;-53
2022/01/10 06:08:33;;;;;;;14.93;8.93;;;;;;;;;;5070220;28;20421;-53
2022/01/10 06:10:59;;;;;;;15.97;10.37;;;;;;;;;;5069957;28;20409;-51
2022/01/10 06:13:25;;;;;;;12.40;8.40;;;;;;;;;;5069951;28;20389;-55
2022/01/10 06:15:51;;;;;;;13.00;7.93;;;;;;;;;;5069967;28;20451;-54
2022/01/10 06:18:18;;;;;;;11.87;8.50;;;;;;;;;;5070267;28;20449;-53
2022/01/10 06:20:44;;;;;;;11.00;8.40;;;;;;;;;;5069935;28;20397;-52
2022/01/10 06:23:11;;;;;;;10.40;7.80;;;;;;;;;;5069836;28;20405;-51
2022/01/10 06:25:38;;;;;;;11.50;9.33;;;;;;;;;;5069706;28;20405;-53
2022/01/10 06:28:04;;;;;;;14.77;8.17;;;;;;;;;;5069696;28;20397;-51
2022/01/10 06:30:30;;;;;;;11.20;7.83;;;;;;;;;;5069781;28;20455;-52
2022/01/10 06:32:56;;;;;;;12.53;8.90;;;;;;;;;;5069558;28;20413;-54
2022/01/10 06:35:22;;;;;;;13.93;8.70;;;;;;;;;;5069744;28;20400;-52
2022/01/10 06:37:48;;;;;;;15.50;8.90;;;;;;;;;;5069686;28;20499;-55
2022/01/10 06:40:14;;;;;;;16.33;8.47;;;;;;;;;;5070085;28;20788;-52
2022/01/10 06:42:41;;;;;;;17.00;10.70;;;;;;;;;;5069784;28;20417;-55
2022/01/10 06:45:07;;;;;;;12.80;9.70;;;;;;;;;;5069709;28;20779;-53
2022/01/10 06:47:33;;;;;;;14.00;9.63;;;;;;;;;;5069897;28;20451;-53
2022/01/10 06:49:59;;;;;;;14.20;10.10;;;;;;;;;;5069534;28;20453;-53
2022/01/10 06:52:25;;;;;;;20.37;8.87;;;;;;;;;;5069684;28;20432;-52
2022/01/10 06:54:51;;;;;;;14.87;9.60;;;;;;;;;;5069442;28;20429;-51
2022/01/10 06:57:18;;;;;;;14.27;10.33;;;;;;;;;;5069436;28;20467;-53
2022/01/10 06:59:44;;;;;;;16.50;10.97;;;;;;;;;;5069579;28;20956;-55
2022/01/10 07:02:10;;;;;;;15.07;9.87;;;;;;;;;;5069461;28;21162;-52
2022/01/10 07:04:36;;;;;;;13.40;8.87;;;;;;;;;;5069558;28;20400;-52
2022/01/10 07:07:03;;;;;;;13.33;9.27;;;;;;;;;;5069630;28;20404;-56
2022/01/10 07:09:30;;;;;;;14.67;10.20;;;;;;;;;;5060909;28;20540;-52
2022/01/10 07:11:56;;;;;;;25.67;9.90;;;;;;;;;;5056394;28;20421;-52
2022/01/10 07:14:22;;;;;;;13.50;9.57;;;;;;;;;;5056133;28;20409;-55
2022/01/10 07:16:50;;;;;;;18.10;10.53;;;;;;;;;;5056274;28;20852;-55
2022/01/10 07:19:16;;;;;;;13.03;10.20;;;;;;;;;;5055954;28;20469;-55
2022/01/10 07:21:43;;;;;;;13.57;8.90;;;;;;;;;;5055928;28;20420;-53
2022/01/10 07:24:09;;;;;;;17.63;9.90;;;;;;;;;;5056051;28;20459;-52
2022/01/10 07:26:36;;;;;;;13.93;9.67;;;;;;;;;;5056086;28;20447;-55
2022/01/10 07:29:03;;;;;;;16.97;11.20;;;;;;;;;;5063256;28;20422;-52
2022/01/10 07:31:29;;;;;;;16.40;10.37;;;;;;;;;;5059803;28;20417;-51
2022/01/10 07:33:56;;;;;;;16.43;10.43;;;;;;;;;;5055690;28;20394;-55
2022/01/10 07:36:22;;;;;;;17.07;11.17;;;;;;;;;;5055747;28;20450;-51
2022/01/10 07:38:48;;;;;;;15.87;9.60;;;;;;;;;;5055695;28;20763;-54
2022/01/10 07:41:14;;;;;;;18.83;9.57;;;;;;;;;;5055415;28;20436;-52
2022/01/10 07:43:40;;;;;;;19.33;11.77;;;;;;;;;;5055333;28;20918;-53
2022/01/10 07:46:07;;;;;;;21.60;12.40;;;;;;;;;;5055812;28;20787;-52
2022/01/10 07:48:35;;;;;;;20.77;11.30;;;;;;;;;;5055693;28;20409;-51
2022/01/10 07:51:01;;;;;;;15.90;9.67;;;;;;;;;;5055238;28;20480;-52
2022/01/10 07:53:27;;;;;;;17.63;9.27;;;;;;;;;;5055455;28;20412;-53
2022/01/10 07:55:53;;;;;;;17.73;10.10;;;;;;;;;;5055696;28;20446;-51
2022/01/10 07:58:19;;;;;;;14.93;10.73;;;;;;;;;;5055122;28;20457;-50
2022/01/10 08:00:46;;;;;;;18.60;10.67;;;;;;;;;;5056030;28;20810;-52
2022/01/10 08:03:12;;;;;;;17.27;11.17;;;;;;;;;;5055160;28;20410;-53
2022/01/10 08:05:38;;;;;;;18.83;10.77;;;;;;;;;;5055896;28;20410;-53
2022/01/10 08:08:04;;;;;;;18.97;12.20;;;;;;;;;;5055194;28;20442;-50
2022/01/10 08:10:30;;;;;;;20.30;12.37;;;;;;;;;;5054938;28;20405;-51
2022/01/10 08:12:56;;;;;;;25.20;11.80;;;;;;;;;;5055181;28;20433;-54
2022/01/10 08:15:22;;;;;;;21.60;12.17;;;;;;;;;;5055286;28;20546;-52
2022/01/10 08:17:48;;;;;;;17.83;12.47;;;;;;;;;;5055136;28;20457;-52
2022/01/10 08:20:15;;;;;;;25.97;12.43;;;;;;;;;;5054550;28;20793;-54
2022/01/10 08:22:41;;;;;;;22.27;12.70;;;;;;;;;;5055493;28;20433;-54
2022/01/10 08:25:07;;;;;;;21.60;13.40;;;;;;;;;;5055213;28;20402;-52
2022/01/10 08:27:34;;;;;;;22.30;12.63;;;;;;;;;;5054867;28;20902;-51
2022/01/10 08:30:00;;;;;;;16.60;10.77;;;;;;;;;;5052322;28;20410;-52
2022/01/10 08:32:26;;;;;;;25.57;12.40;;;;;;;;;;5044988;28;20469;-52
2022/01/10 08:34:52;;;;;;;18.93;12.87;;;;;;;;;;5048649;28;20414;-52
2022/01/10 08:37:18;;;;;;;21.10;13.10;;;;;;;;;;5054070;28;20464;-50
2022/01/10 08:39:49;;;;;;;17.53;12.83;;;;;;;;;;5054220;28;20877;-51
2022/01/10 08:42:15;;;;;;;20.40;11.80;;;;;;;;;;5053759;28;20422;-51
2022/01/10 08:44:41;;;;;;;17.70;12.83;;;;;;;;;;5054075;28;20414;-52
2022/01/10 08:47:08;;;;;;;19.03;12.63;;;;;;;;;;5052532;28;20500;-53
2022/01/10 08:49:34;;;;;;;19.17;11.83;;;;;;;;;;5054130;28;20713;-50
2022/01/10 08:52:00;;;;;;;16.50;12.00;;;;;;;;;;5053593;28;20834;-52
2022/01/10 08:54:26;;;;;;;18.37;12.33;;;;;;;;;;5054123;28;20878;-54
2022/01/10 08:56:53;;;;;;;20.10;11.63;;;;;;;;;;5053317;28;20469;-52
2022/01/10 08:59:19;;;;;;;17.53;11.93;;;;;;;;;;5054219;28;20730;-53
2022/01/10 09:01:46;;;;;;;19.73;11.53;;;;;;;;;;5052483;28;20559;-51
2022/01/10 09:04:16;;;;;;;19.73;14.13;;;;;;;;;;5042598;28;20517;-53
2022/01/10 09:06:45;;;;;;;18.07;12.83;;;;;;;;;;5039498;28;20425;-53
2022/01/10 09:09:12;;;;;;;17.53;11.10;;;;;;;;;;5053275;28;20414;-51
2022/01/10 09:11:38;;;;;;;17.47;11.70;;;;;;;;;;5053920;28;20782;-55
2022/01/10 09:14:06;;;;;;;17.87;12.70;;;;;;;;;;5053242;28;20406;-51
2022/01/10 09:16:32;;;;;;;22.13;11.20;;;;;;;;;;5053238;28;20914;-50
2022/01/10 09:18:58;;;;;;;21.23;12.10;;;;;;;;;;5053258;28;20486;-51
2022/01/10 09:21:24;;;;;;;20.40;12.90;;;;;;;;;;5056222;28;20426;-52
2022/01/10 09:23:50;;;;;;;19.10;12.50;;;;;;;;;;5053308;28;20430;-51
2022/01/10 09:26:16;;;;;;;19.80;12.93;;;;;;;;;;5053657;28;20776;-54
2022/01/10 09:28:45;;;;;;;19.87;12.50;;;;;;;;;;5053146;28;20910;-53
2022/01/10 09:31:12;;;;;;;20.30;13.17;;;;;;;;;;5053322;28;20516;-54
2022/01/10 09:33:38;;;;;;;15.00;11.03;;;;;;;;;;5052958;28;20767;-53
2022/01/10 09:36:04;;;;;;;16.50;11.67;;;;;;;;;;5053158;28;20433;-51
2022/01/10 09:38:30;;;;;;;16.77;10.13;;;;;;;;;;5053411;28;20457;-51
2022/01/10 09:40:56;;;;;;;15.40;10.27;;;;;;;;;;5053365;28;20414;-52
2022/01/10 09:43:22;;;;;;;17.60;11.03;;;;;;;;;;5052949;28;20405;-51
2022/01/10 09:45:51;;;;;;;20.13;14.30;;;;;;;;;;5052717;28;20455;-54
2022/01/10 09:48:17;;;;;;;22.53;14.23;;;;;;;;;;5052987;28;20397;-54
2022/01/10 09:50:44;;;;;;;20.83;11.37;;;;;;;;;;5052619;28;20509;-54
2022/01/10 09:53:10;;;;;;;30.87;20.70;;;;;;;;;;5053045;28;20492;-55
2022/01/10 09:55:36;;;;;;;24.50;14.60;;;;;;;;;;5052639;28;20769;-55
2022/01/10 09:58:03;;;;;;;19.60;10.90;;;;;;;;;;5052299;28;20461;-52
2022/01/10 10:00:30;;;;;;;19.37;10.97;;;;;;;;;;5053124;28;20402;-51
2022/01/10 10:02:56;;;;;;;37.83;21.70;;;;;;;;;;5053016;28;20464;-52
2022/01/10 10:05:22;;;;;;;22.53;17.13;;;;;;;;;;5052494;28;20436;-52
2022/01/10 10:07:48;;;;;;;24.03;15.93;;;;;;;;;;5052600;28;20406;-53
2022/01/10 10:10:15;;;;;;;22.87;15.30;;;;;;;;;;5052951;28;20442;-54
2022/01/10 10:12:45;;;;;;;19.73;11.30;;;;;;;;;;5053272;28;20486;-52
2022/01/10 10:15:15;;;;;;;20.07;14.20;;;;;;;;;;5052530;28;20390;-55
2022/01/10 10:17:42;;;;;;;17.70;11.13;;;;;;;;;;5052445;28;20977;-54
2022/01/10 10:20:11;;;;;;;18.47;11.80;;;;;;;;;;5053103;28;20437;-51
2022/01/10 10:22:41;;;;;;;18.63;12.13;;;;;;;;;;5052692;28;20945;-55
2022/01/10 10:25:08;;;;;;;14.87;10.30;;;;;;;;;;5052339;28;20512;-52
2022/01/10 10:27:38;;;;;;;16.80;11.10;;;;;;;;;;5052625;28;20414;-53
2022/01/10 10:30:06;;;;;;;13.63;9.93;;;;;;;;;;5052838;28;20398;-51
2022/01/10 10:32:32;;;;;;;18.83;11.20;;;;;;;;;;5052607;28;20426;-51
2022/01/10 10:34:59;;;;;;;14.40;11.10;;;;;;;;;;5052385;28;20463;-51
2022/01/10 10:37:27;;;;;;;17.10;10.90;;;;;;;;;;5052166;28;20453;-53
2022/01/10 10:39:55;;;;;;;18.87;11.43;;;;;;;;;;5052590;28;20406;-51
2022/01/10 10:42:27;;;;;;;19.40;11.20;;;;;;;;;;5052539;28;20421;-55
2022/01/10 10:44:53;;;;;;;20.80;11.63;;;;;;;;;;5055058;28;20374;-55
2022/01/10 10:47:21;;;;;;;18.50;11.40;;;;;;;;;;5055865;28;20890;-51
2022/01/10 10:49:51;;;;;;;17.13;9.77;;;;;;;;;;5056126;28;20801;-51
2022/01/10 10:52:17;;;;;;;16.80;10.47;;;;;;;;;;5056595;28;20945;-51
2022/01/10 10:54:43;;;;;;;15.23;10.07;;;;;;;;;;5056672;28;20429;-52
2022/01/10 10:57:10;;;;;;;15.60;11.00;;;;;;;;;;5055760;28;20465;-53
2022/01/10 10:59:43;;;;;;;16.27;10.40;;;;;;;;;;5056436;28;20485;-52
2022/01/10 11:02:09;;;;;;;16.33;11.00;;;;;;;;;;5056435;28;20451;-52
2022/01/10 11:04:35;;;;;;;16.70;10.13;;;;;;;;;;5056608;28;20416;-53
2022/01/10 11:07:01;;;;;;;17.83;12.43;;;;;;;;;;5055306;28;20408;-53
2022/01/10 11:09:28;;;;;;;17.17;10.33;;;;;;;;;;5055940;28;20417;-53
2022/01/10 11:11:54;;;;;;;17.50;11.27;;;;;;;;;;5055703;28;20562;-53
2022/01/10 11:14:24;;;;;;;16.10;10.70;;;;;;;;;;5055865;28;20418;-53
2022/01/10 11:16:52;;;;;;;14.27;10.67;;;;;;;;;;5055023;28;20443;-55
2022/01/10 11:19:26;;;;;;;19.80;11.10;;;;;;;;;;5049139;28;20935;-52
2022/01/10 11:22:11;;;;;;;16.60;12.10;;;;;;;;;;5048727;28;20438;-58
2022/01/10 11:24:44;;;;;;;13.83;9.70;;;;;;;;;;5052722;28;20502;-50
2022/01/10 11:27:29;;;;;;;21.23;11.70;;;;;;;;;;5039755;28;20919;-51
2022/01/10 11:29:57;;;;;;;21.13;10.53;;;;;;;;;;5043890;28;20929;-52
2022/01/10 11:32:43;;;;;;;15.23;9.87;;;;;;;;;;5039879;28;21012;-51
2022/01/10 11:35:09;;;;;;;19.10;11.80;;;;;;;;;;5043833;28;20409;-52
2022/01/10 11:37:36;;;;;;;18.00;11.60;;;;;;;;;;5049309;28;20954;-52
2022/01/10 11:40:02;;;;;;;19.33;12.10;;;;;;;;;;5039485;28;20429;-54
2022/01/10 11:42:28;;;;;;;15.83;10.33;;;;;;;;;;5050197;28;20433;-55
2022/01/10 11:45:11;;;;;;;19.47;12.80;;;;;;;;;;5051951;28;20406;-54
2022/01/10 11:47:57;;;;;;;24.03;12.67;;;;;;;;;;5035897;28;20461;-52
2022/01/10 11:50:25;;;;;;;21.43;12.67;;;;;;;;;;5041465;28;20436;-52
2022/01/10 11:52:55;;;;;;;17.90;13.60;;;;;;;;;;5035188;28;20483;-49
2022/01/10 11:55:30;;;;;;;13.73;10.97;;;;;;;;;;5036326;28;20419;-50
2022/01/10 11:58:13;;;;;;;19.73;12.50;;;;;;;;;;5033973;28;20477;-52
2022/01/10 12:00:39;;;;;;;20.73;12.27;;;;;;;;;;5041236;28;20417;-50
2022/01/10 12:03:06;;;;;;;24.43;12.93;;;;;;;;;;5042518;28;20423;-59
2022/01/10 12:05:32;;;;;;;14.73;10.10;;;;;;;;;;5037485;28;20777;-64
2022/01/10 12:07:58;;;;;;;22.60;13.37;;;;;;;;;;5034444;28;20548;-67
2022/01/10 12:10:24;;;;;;;14.67;10.77;;;;;;;;;;5035026;28;20411;-65
2022/01/10 12:12:54;;;;;;;23.10;13.70;;;;;;;;;;5041196;28;20926;-65
2022/01/10 12:15:20;;;;;;;13.13;9.40;;;;;;;;;;5050863;28;20778;-64
2022/01/10 12:17:46;;;;;;;14.93;9.57;;;;;;;;;;5035609;28;20854;-65
2022/01/10 12:20:13;;;;;;;18.50;10.97;;;;;;;;;;5041834;28;20415;-66
2022/01/10 12:22:39;;;;;;;18.93;11.20;;;;;;;;;;5033856;28;20473;-66
2022/01/10 12:25:08;;;;;;;18.30;12.57;;;;;;;;;;5051555;28;20410;-65
2022/01/10 12:27:34;;;;;;;17.47;11.43;;;;;;;;;;5050498;28;20429;-65
2022/01/10 12:30:00;;;;;;;19.00;12.37;;;;;;;;;;5036958;28;20462;-62
2022/01/10 12:32:26;;;;;;;19.13;11.83;;;;;;;;;;5043828;28;20430;-66
2022/01/10 12:34:53;;;;;;;18.83;10.33;;;;;;;;;;5055612;28;20418;-63
2022/01/10 12:37:19;;;;;;;17.95;12.30;;;;;;;;;;5035801;28;20444;-64
2022/01/10 12:39:45;;;;;;;19.43;13.00;;;;;;;;;;5034429;28;20176;-62
2022/01/10 12:42:12;;;;;;;18.93;11.80;;;;;;;;;;5047798;28;20435;-65
2022/01/10 12:44:38;;;;;;;13.37;9.70;;;;;;;;;;5054022;28;20411;-66
2022/01/10 12:47:04;;;;;;;18.50;12.63;;;;;;;;;;5042696;28;20764;-62
2022/01/10 12:49:30;;;;;;;18.53;10.77;;;;;;;;;;5049211;28;20866;-63
2022/01/10 12:51:57;;;;;;;17.33;9.90;;;;;;;;;;5047906;28;20434;-65
2022/01/10 12:54:29;;;;;;;12.60;9.13;;;;;;;;;;5038297;28;20476;-66
2022/01/10 12:56:56;;;;;;;15.00;10.33;;;;;;;;;;5015858;28;20506;-65
2022/01/10 12:59:23;;;;;;;14.13;9.47;;;;;;;;;;5047091;28;20410;-65
2022/01/10 13:01:50;;;;;;;12.10;8.43;;;;;;;;;;5055334;28;20448;-64
2022/01/10 13:04:21;;;;;;;19.27;11.07;;;;;;;;;;5037141;28;20899;-64
2022/01/10 13:06:48;;;;;;;23.50;13.93;;;;;;;;;;5034351;28;20407;-63
2022/01/10 13:09:15;;;;;;;17.57;11.27;;;;;;;;;;5033707;28;20465;-62
2022/01/10 13:11:44;;;;;;;20.40;11.23;;;;;;;;;;5050542;28;20430;-63
2022/01/10 13:14:11;;;;;;;14.57;10.50;;;;;;;;;;5053877;28;20413;-64
2022/01/10 13:16:38;;;;;;;19.67;11.33;;;;;;;;;;5052528;28;20414;-62
2022/01/10 13:19:08;;;;;;;23.60;10.60;;;;;;;;;;5051496;28;20421;-51
2022/01/10 13:22:03;;;;;;;15.93;10.77;;;;;;;;;;5038991;28;20518;-50
2022/01/10 13:24:30;;;;;;;16.43;9.93;;;;;;;;;;5044584;28;20426;-53
2022/01/10 13:27:07;;;;;;;17.23;9.83;;;;;;;;;;5032782;28;20411;-52
2022/01/10 13:29:35;;;;;;;15.63;9.83;;;;;;;;;;5048733;28;20398;-50
2022/01/10 13:32:20;;;;;;;15.40;7.50;;;;;;;;;;5049140;28;20491;-51
2022/01/10 13:34:47;;;;;;;15.97;8.87;;;;;;;;;;5043461;28;20406;-62
2022/01/10 13:37:14;;;;;;;16.53;10.63;;;;;;;;;;5053178;28;20457;-57
2022/01/10 13:39:40;;;;;;;15.73;11.60;;;;;;;;;;5052470;28;20476;-56
2022/01/10 13:42:08;;;;;;;17.60;11.00;;;;;;;;;;5052773;28;20425;-53
2022/01/10 13:44:49;;;;;;;19.07;11.47;;;;;;;;;;5051211;28;20517;-57
2022/01/10 13:47:15;;;;;;;12.07;8.70;;;;;;;;;;5052816;28;20393;-56
2022/01/10 13:49:41;;;;;;;12.27;10.03;;;;;;;;;;5052947;28;20425;-58
2022/01/10 13:52:08;;;;;;;13.33;9.10;;;;;;;;;;5051904;28;20790;-56
2022/01/10 13:54:35;;;;;;;12.07;9.70;;;;;;;;;;5051605;28;20460;-52
2022/01/10 13:57:16;;;;;;;18.67;10.57;;;;;;;;;;5043305;28;20466;-55
2022/01/10 13:59:42;;;;;;;15.43;10.13;;;;;;;;;;5033201;28;20437;-56
2022/01/10 14:02:09;;;;;;;17.97;11.93;;;;;;;;;;5033886;28;20438;-53
2022/01/10 14:04:36;;;;;;;14.83;9.77;;;;;;;;;;5032803;28;20407;-57
2022/01/10 14:07:09;;;;;;;18.93;11.07;;;;;;;;;;5048702;28;20468;-59
2022/01/10 14:09:36;;;;;;;15.10;10.23;;;;;;;;;;5033092;28;20698;-56
2022/01/10 14:12:06;;;;;;;21.00;11.13;;;;;;;;;;5033337;28;20446;-53
2022/01/10 14:14:32;;;;;;;15.73;10.93;;;;;;;;;;5033618;28;20403;-54
2022/01/10 14:16:58;;;;;;;15.47;10.30;;;;;;;;;;5034279;28;20461;-55
2022/01/10 14:19:25;;;;;;;19.10;10.50;;;;;;;;;;5053160;28;20410;-50
2022/01/10 14:21:51;;;;;;;18.27;10.13;;;;;;;;;;5054158;28;20560;-66
2022/01/10 14:24:19;;;;;;;18.70;10.50;;;;;;;;;;5054957;28;20934;-59
2022/01/10 14:26:45;;;;;;;12.30;9.37;;;;;;;;;;5056362;28;20426;-62
2022/01/10 14:29:11;;;;;;;18.13;9.87;;;;;;;;;;5054855;28;20508;-67
2022/01/10 14:31:37;;;;;;;12.53;9.67;;;;;;;;;;5045814;28;20449;-64
2022/01/10 14:34:04;;;;;;;17.30;10.10;;;;;;;;;;5056575;28;20891;-64
2022/01/10 14:36:31;;;;;;;16.17;9.50;;;;;;;;;;5051556;28;20445;-65
2022/01/10 14:38:57;;;;;;;10.67;7.13;;;;;;;;;;5057164;28;20450;-63
2022/01/10 14:41:24;;;;;;;20.33;10.27;;;;;;;;;;5051663;28;20475;-66